Time;durP1;ratioP1;P1;durP2;ratioP2;P2;SDS_P1;SDS_P2;PMS_P1;PMS_P2;Temp;Humidity;BMP_temperature;BMP_pressure;BME280_temperature;BME280_humidity;BME280_pressure;Samples;Min_cycle;Max_cycle;Signal;HPM_P1;HPM_P2
2022/07/22 00:01:51;;;;;;;7.88;3.67;;;27.10;78.00;;;;;;5030520;28;20460;-74
2022/07/22 00:04:17;;;;;;;6.13;3.63;;;27.10;78.10;;;;;;5021530;28;20396;-74
2022/07/22 00:06:43;;;;;;;6.38;3.45;;;27.00;78.10;;;;;;5014390;28;20108;-74
2022/07/22 00:09:09;;;;;;;6.57;3.45;;;27.00;78.60;;;;;;5031411;28;20068;-74
2022/07/22 00:11:35;;;;;;;6.60;3.33;;;26.90;78.80;;;;;;5030701;28;20038;-74
2022/07/22 00:14:01;;;;;;;5.72;3.50;;;26.90;79.00;;;;;;5032237;28;20025;-74
2022/07/22 00:16:26;;;;;;;7.10;3.30;;;26.80;79.00;;;;;;5030088;28;20029;-74
2022/07/22 00:18:52;;;;;;;7.45;3.78;;;26.70;79.30;;;;;;5014424;28;20026;-74
2022/07/22 00:21:18;;;;;;;7.10;3.72;;;26.70;79.40;;;;;;5028003;28;20045;-73
2022/07/22 00:23:43;;;;;;;5.78;3.17;;;26.60;79.70;;;;;;5012537;28;20083;-74
2022/07/22 00:26:09;;;;;;;6.40;3.47;;;26.60;80.30;;;;;;5026238;28;20063;-74
2022/07/22 00:28:35;;;;;;;10.30;4.00;;;26.40;80.00;;;;;;5021619;28;20108;-73
2022/07/22 00:31:01;;;;;;;8.27;3.70;;;26.20;80.50;;;;;;5026706;28;20025;-74
2022/07/22 00:33:26;;;;;;;5.53;3.65;;;26.20;80.60;;;;;;5030645;28;20076;-74
2022/07/22 00:35:52;;;;;;;6.70;3.20;;;26.30;80.50;;;;;;5030382;28;20021;-74
2022/07/22 00:38:17;;;;;;;8.43;3.58;;;26.20;80.40;;;;;;5023786;28;20029;-74
2022/07/22 00:40:43;;;;;;;6.30;3.75;;;26.20;80.40;;;;;;5022189;28;20104;-74
2022/07/22 00:43:09;;;;;;;8.13;3.88;;;26.20;80.50;;;;;;5032320;28;20029;-73
2022/07/22 00:45:35;;;;;;;6.80;3.30;;;26.20;80.40;;;;;;5030976;28;20314;-74
2022/07/22 00:48:01;;;;;;;6.80;3.45;;;26.40;80.40;;;;;;5014908;28;20030;-74
2022/07/22 00:50:26;;;;;;;7.50;4.13;;;26.40;80.30;;;;;;5013440;28;20113;-74
2022/07/22 00:52:52;;;;;;;6.90;3.65;;;26.20;80.50;;;;;;5019859;28;20034;-74
2022/07/22 00:55:18;;;;;;;7.55;4.45;;;26.10;80.60;;;;;;5033007;28;20029;-74
2022/07/22 00:57:44;;;;;;;5.85;3.63;;;26.00;80.60;;;;;;5033030;28;20034;-74
2022/07/22 01:00:14;;;;;;;7.63;3.78;;;26.10;81.10;;;;;;5033631;28;20040;-74
2022/07/22 01:02:40;;;;;;;7.88;3.50;;;26.20;80.60;;;;;;5035459;28;20484;-74
2022/07/22 01:05:06;;;;;;;6.55;3.30;;;26.10;80.70;;;;;;5030243;28;20095;-74
2022/07/22 01:07:32;;;;;;;7.25;3.72;;;26.10;80.90;;;;;;5033900;28;20025;-73
2022/07/22 01:09:58;;;;;;;8.98;3.40;;;26.00;80.90;;;;;;5030416;28;20076;-74
2022/07/22 01:12:23;;;;;;;6.50;3.35;;;26.00;81.00;;;;;;5017439;28;20037;-74
2022/07/22 01:14:49;;;;;;;7.50;3.58;;;25.90;81.20;;;;;;5034677;28;20025;-74
2022/07/22 01:17:15;;;;;;;6.47;3.67;;;25.80;81.20;;;;;;5032990;28;20112;-73
2022/07/22 01:19:41;;;;;;;7.80;3.83;;;25.90;81.30;;;;;;5014777;28;20097;-74
2022/07/22 01:22:07;;;;;;;6.47;3.58;;;25.80;81.30;;;;;;5013719;28;20041;-73
2022/07/22 01:24:33;;;;;;;6.90;4.20;;;25.80;81.20;;;;;;5012621;28;20029;-74
2022/07/22 01:26:59;;;;;;;6.10;3.72;;;25.80;81.30;;;;;;5015384;28;20029;-74
2022/07/22 01:29:24;;;;;;;7.38;3.90;;;25.80;81.50;;;;;;5023772;28;20026;-74
2022/07/22 01:31:50;;;;;;;9.70;4.72;;;25.70;81.50;;;;;;5019268;28;20058;-74
2022/07/22 01:34:16;;;;;;;6.57;4.07;;;25.70;81.60;;;;;;5032738;28;20029;-74
2022/07/22 01:36:42;;;;;;;9.60;3.83;;;25.50;81.60;;;;;;5025292;28;20029;-74
2022/07/22 01:39:08;;;;;;;5.38;3.83;;;25.70;81.50;;;;;;5014856;28;20033;-74
2022/07/22 01:41:33;;;;;;;5.57;3.55;;;25.70;81.40;;;;;;5017743;28;20099;-74
2022/07/22 01:44:00;;;;;;;12.65;4.75;;;25.70;81.50;;;;;;5023523;28;20030;-74
2022/07/22 01:46:25;;;;;;;9.20;4.90;;;25.70;81.50;;;;;;5020224;28;20049;-74
2022/07/22 01:48:52;;;;;;;9.25;4.55;;;25.50;81.70;;;;;;5014303;28;20400;-74
2022/07/22 01:51:18;;;;;;;8.10;4.20;;;25.50;81.90;;;;;;5027720;28;20042;-74
2022/07/22 01:53:44;;;;;;;9.77;4.43;;;25.40;81.90;;;;;;5033022;28;20115;-74
2022/07/22 01:56:10;;;;;;;6.45;4.00;;;25.40;81.90;;;;;;5031872;28;20555;-74
2022/07/22 01:58:35;;;;;;;7.15;4.40;;;25.50;81.90;;;;;;5033817;28;20034;-74
2022/07/22 02:01:01;;;;;;;5.80;4.18;;;25.40;82.00;;;;;;5029109;28;20053;-74
2022/07/22 02:03:27;;;;;;;5.68;4.03;;;25.40;82.40;;;;;;5034425;28;20022;-74
2022/07/22 02:05:53;;;;;;;9.10;4.70;;;25.40;82.10;;;;;;5028558;28;20041;-74
2022/07/22 02:08:18;;;;;;;5.85;4.25;;;25.30;82.30;;;;;;5013978;28;20033;-74
2022/07/22 02:10:45;;;;;;;6.43;4.38;;;25.30;82.20;;;;;;5022966;28;20029;-74
2022/07/22 02:13:11;;;;;;;7.45;4.35;;;25.30;82.30;;;;;;5033835;28;20060;-74
2022/07/22 02:15:37;;;;;;;8.15;4.70;;;25.20;82.40;;;;;;5025283;28;20468;-74
2022/07/22 02:18:16;;;;;;;6.25;4.47;;;25.20;82.60;;;;;;5026247;28;20030;-74
2022/07/22 02:20:43;;;;;;;9.75;4.45;;;25.10;82.60;;;;;;5031770;28;20044;-74
2022/07/22 02:23:10;;;;;;;7.97;4.38;;;25.20;82.50;;;;;;5033913;28;20028;-73
2022/07/22 02:25:36;;;;;;;9.20;4.40;;;25.10;82.50;;;;;;5028732;28;20044;-73
2022/07/22 02:28:02;;;;;;;15.13;4.63;;;25.10;82.50;;;;;;5013694;28;20117;-73
2022/07/22 02:30:28;;;;;;;7.47;4.50;;;25.30;82.30;;;;;;5019928;28;20507;-73
2022/07/22 02:32:54;;;;;;;8.07;4.22;;;25.10;82.50;;;;;;5019125;28;20045;-74
2022/07/22 02:35:20;;;;;;;7.15;3.90;;;25.00;82.70;;;;;;5033438;28;20076;-73
2022/07/22 02:37:45;;;;;;;7.22;3.88;;;25.10;82.70;;;;;;5031828;28;20025;-73
2022/07/22 02:40:11;;;;;;;8.90;3.58;;;25.30;82.30;;;;;;5033570;28;20025;-73
2022/07/22 02:42:37;;;;;;;7.43;4.72;;;25.40;82.10;;;;;;5032082;28;20033;-73
2022/07/22 02:45:03;;;;;;;7.78;4.32;;;25.50;81.90;;;;;;5033403;28;20030;-73
2022/07/22 02:47:29;;;;;;;6.88;4.35;;;25.30;82.20;;;;;;5031007;28;20029;-73
2022/07/22 02:49:54;;;;;;;6.30;4.55;;;25.20;82.30;;;;;;5017899;28;20041;-73
2022/07/22 02:52:20;;;;;;;6.38;4.28;;;25.00;82.60;;;;;;5019452;28;20431;-73
2022/07/22 02:54:45;;;;;;;8.40;4.55;;;25.00;82.70;;;;;;5029644;28;20029;-74
2022/07/22 02:57:11;;;;;;;7.28;4.63;;;24.90;82.80;;;;;;5033125;28;20025;-74
2022/07/22 02:59:37;;;;;;;8.23;4.78;;;24.90;82.90;;;;;;5029368;28;20104;-73
2022/07/22 03:02:03;;;;;;;6.63;4.40;;;24.90;82.90;;;;;;5031675;28;20111;-72
2022/07/22 03:04:28;;;;;;;6.68;4.30;;;24.90;83.10;;;;;;5024576;28;20042;-72
2022/07/22 03:06:54;;;;;;;6.07;4.05;;;24.90;82.90;;;;;;5007704;28;20472;-72
2022/07/22 03:09:20;;;;;;;10.40;4.75;;;25.00;83.00;;;;;;5017228;28;20400;-72
2022/07/22 03:11:46;;;;;;;6.80;4.10;;;25.00;83.10;;;;;;5027624;28;20041;-72
2022/07/22 03:14:11;;;;;;;9.35;4.20;;;24.90;83.00;;;;;;5026455;28;20056;-72
2022/07/22 03:16:38;;;;;;;8.20;4.40;;;24.90;83.00;;;;;;5019417;28;20631;-72
2022/07/22 03:19:03;;;;;;;7.28;4.20;;;24.80;83.20;;;;;;5022555;28;20372;-72
2022/07/22 03:21:29;;;;;;;7.20;4.22;;;24.90;83.20;;;;;;5020361;28;20057;-72
2022/07/22 03:23:55;;;;;;;7.05;4.25;;;24.80;83.30;;;;;;5027806;28;20459;-72
2022/07/22 03:26:21;;;;;;;8.07;4.60;;;24.90;83.30;;;;;;5023250;28;20569;-72
2022/07/22 03:28:48;;;;;;;8.25;4.10;;;24.90;83.20;;;;;;5027679;28;20596;-72
2022/07/22 03:31:13;;;;;;;8.85;4.72;;;25.00;83.00;;;;;;5026894;28;20487;-72
2022/07/22 03:33:39;;;;;;;7.43;4.80;;;25.00;82.70;;;;;;5028216;28;20039;-72
2022/07/22 03:36:05;;;;;;;7.43;4.90;;;25.10;82.80;;;;;;5023021;28;20044;-72
2022/07/22 03:38:31;;;;;;;8.50;4.30;;;25.10;82.90;;;;;;5008229;28;20108;-72
2022/07/22 03:40:57;;;;;;;6.35;3.88;;;24.90;83.20;;;;;;5012574;28;20076;-72
2022/07/22 03:43:22;;;;;;;8.40;4.32;;;24.90;83.20;;;;;;5028385;28;20064;-72
2022/07/22 03:45:48;;;;;;;8.45;4.45;;;24.70;83.90;;;;;;5026378;28;20028;-72
2022/07/22 03:48:14;;;;;;;13.30;4.82;;;24.70;83.80;;;;;;5027059;28;20448;-72
2022/07/22 03:50:39;;;;;;;7.53;5.18;;;24.80;83.70;;;;;;5019375;28;20052;-72
2022/07/22 03:53:05;;;;;;;8.43;4.80;;;24.70;83.70;;;;;;5011523;28;20145;-72
2022/07/22 03:55:31;;;;;;;7.65;4.40;;;24.70;83.80;;;;;;5007394;28;20029;-72
2022/07/22 03:57:57;;;;;;;7.55;4.38;;;24.60;83.90;;;;;;5026878;28;20030;-72
2022/07/22 04:00:22;;;;;;;9.38;4.65;;;24.60;84.10;;;;;;5025249;28;20033;-72
2022/07/22 04:02:48;;;;;;;7.82;4.70;;;24.60;84.10;;;;;;5022054;28;20034;-72
2022/07/22 04:05:13;;;;;;;8.23;4.68;;;24.70;84.00;;;;;;5025286;28;20490;-72
2022/07/22 04:07:39;;;;;;;9.20;4.65;;;24.60;84.10;;;;;;5020898;28;20575;-72
2022/07/22 04:10:05;;;;;;;9.38;5.13;;;24.60;84.10;;;;;;5023657;28;20134;-72
2022/07/22 04:12:36;;;;;;;8.82;4.45;;;24.60;84.30;;;;;;5023472;28;20063;-72
2022/07/22 04:15:04;;;;;;;6.72;4.53;;;24.50;84.50;;;;;;5013767;28;20034;-72
2022/07/22 04:17:29;;;;;;;10.18;4.68;;;24.50;84.30;;;;;;5005054;28;20060;-73
2022/07/22 04:19:55;;;;;;;13.80;5.10;;;24.60;84.50;;;;;;5004727;28;20069;-74
2022/07/22 04:22:21;;;;;;;9.23;4.55;;;24.60;84.50;;;;;;5010244;28;20395;-73
2022/07/22 04:24:48;;;;;;;7.82;4.50;;;24.60;84.40;;;;;;5022145;28;20105;-73
2022/07/22 04:27:13;;;;;;;6.93;4.18;;;24.70;84.10;;;;;;5028785;28;20044;-73
2022/07/22 04:29:39;;;;;;;8.07;4.65;;;24.80;84.00;;;;;;5026183;28;20021;-73
2022/07/22 04:32:05;;;;;;;7.47;5.07;;;24.70;84.50;;;;;;5028081;28;20075;-73
2022/07/22 04:34:31;;;;;;;5.95;4.15;;;24.70;84.40;;;;;;5026763;28;20716;-74
2022/07/22 04:36:56;;;;;;;8.35;4.53;;;24.60;84.60;;;;;;5028562;28;20029;-74
2022/07/22 04:39:22;;;;;;;10.18;5.30;;;24.50;85.10;;;;;;5026537;28;20025;-74
2022/07/22 04:41:48;;;;;;;7.65;4.47;;;24.50;85.00;;;;;;5027397;28;20030;-74
2022/07/22 04:44:13;;;;;;;12.02;4.82;;;24.40;85.80;;;;;;5026394;28;20565;-73
2022/07/22 04:46:39;;;;;;;8.02;4.78;;;24.20;86.50;;;;;;5027909;28;20044;-74
2022/07/22 04:49:04;;;;;;;9.80;4.32;;;24.10;86.90;;;;;;5025060;28;20025;-74
2022/07/22 04:51:30;;;;;;;7.70;4.43;;;24.00;87.30;;;;;;5018464;28;20088;-73
2022/07/22 04:53:56;;;;;;;8.95;3.70;;;24.00;87.50;;;;;;5008023;28;20037;-73
2022/07/22 04:56:22;;;;;;;9.00;4.57;;;24.10;87.40;;;;;;5008193;28;20109;-74
2022/07/22 04:58:47;;;;;;;8.07;4.55;;;24.20;87.00;;;;;;5023269;28;20037;-73
2022/07/22 05:01:13;;;;;;;11.25;5.00;;;24.30;86.60;;;;;;5028330;28;20037;-73
2022/07/22 05:03:40;;;;;;;7.32;4.90;;;24.30;87.10;;;;;;5019062;28;20460;-73
2022/07/22 05:06:05;;;;;;;8.98;5.07;;;24.30;86.60;;;;;;5008760;28;20041;-74
2022/07/22 05:08:31;;;;;;;7.28;4.25;;;24.30;86.90;;;;;;5017565;28;20044;-74
2022/07/22 05:10:57;;;;;;;8.07;4.57;;;24.30;86.90;;;;;;5008049;28;20452;-74
2022/07/22 05:13:22;;;;;;;6.75;4.63;;;24.40;86.60;;;;;;5013781;28;20454;-73
2022/07/22 05:15:49;;;;;;;8.77;5.13;;;24.50;86.10;;;;;;5027755;28;20033;-74
2022/07/22 05:18:15;;;;;;;7.40;4.47;;;24.60;86.10;;;;;;5026014;28;20033;-74
2022/07/22 05:20:40;;;;;;;6.82;4.35;;;24.60;86.50;;;;;;5022113;28;20381;-73
2022/07/22 05:23:06;;;;;;;7.75;4.90;;;24.50;86.60;;;;;;5018903;28;20037;-73
2022/07/22 05:25:32;;;;;;;10.85;5.28;;;24.60;86.80;;;;;;5027756;28;20033;-75
2022/07/22 05:27:57;;;;;;;9.50;4.88;;;24.60;86.80;;;;;;5027303;28;20029;-72
2022/07/22 05:30:23;;;;;;;14.88;4.97;;;24.60;87.20;;;;;;5011647;28;20030;-73
2022/07/22 05:32:49;;;;;;;13.80;5.57;;;24.70;87.00;;;;;;5018811;28;20099;-72
2022/07/22 05:35:15;;;;;;;8.43;5.03;;;24.80;86.40;;;;;;5024750;28;20415;-73
2022/07/22 05:37:40;;;;;;;8.32;5.45;;;24.90;86.50;;;;;;5023972;28;20026;-74
2022/07/22 05:40:07;;;;;;;10.15;5.25;;;25.00;85.30;;;;;;5007051;28;20115;-74
2022/07/22 05:42:32;;;;;;;13.00;6.13;;;25.10;85.20;;;;;;5018879;28;20041;-73
2022/07/22 05:44:58;;;;;;;8.27;4.57;;;25.10;86.10;;;;;;5012678;28;20030;-73
2022/07/22 05:47:24;;;;;;;11.77;4.90;;;25.10;86.50;;;;;;5020476;28;20025;-73
2022/07/22 05:49:49;;;;;;;8.13;5.18;;;25.10;87.00;;;;;;5006896;28;20026;-72
2022/07/22 05:52:15;;;;;;;11.65;5.32;;;25.20;87.20;;;;;;5007121;28;20034;-73
2022/07/22 05:54:41;;;;;;;6.32;4.57;;;25.20;88.00;;;;;;5013697;28;20026;-72
2022/07/22 05:57:09;;;;;;;13.50;4.82;;;25.00;88.00;;;;;;5014013;28;20052;-73
2022/07/22 05:59:36;;;;;;;11.40;5.00;;;25.00;88.20;;;;;;5020364;28;20032;-72
2022/07/22 06:02:02;;;;;;;8.55;5.03;;;24.90;89.30;;;;;;5015456;28;20037;-73
2022/07/22 06:04:27;;;;;;;7.53;4.80;;;25.00;89.00;;;;;;5006481;28;20033;-73
2022/07/22 06:06:53;;;;;;;9.05;5.13;;;25.20;89.00;;;;;;5006958;28;20026;-73
2022/07/22 06:09:19;;;;;;;8.13;5.20;;;25.10;87.80;;;;;;5006557;28;20408;-73
2022/07/22 06:11:44;;;;;;;7.05;5.10;;;25.20;88.30;;;;;;5013259;28;20068;-73
2022/07/22 06:14:10;;;;;;;12.15;5.85;;;25.30;88.70;;;;;;5013048;28;20034;-73
2022/07/22 06:16:36;;;;;;;12.07;5.65;;;25.20;89.10;;;;;;5005748;28;20084;-73
2022/07/22 06:19:02;;;;;;;7.95;5.50;;;25.30;88.60;;;;;;5005698;28;20025;-73
2022/07/22 06:21:28;;;;;;;9.48;5.43;;;25.40;88.80;;;;;;5006315;28;20057;-73
2022/07/22 06:23:53;;;;;;;28.73;7.13;;;25.40;88.10;;;;;;5006404;28;20042;-72
2022/07/22 06:26:19;;;;;;;12.75;6.05;;;25.50;87.30;;;;;;5015214;28;20029;-72
2022/07/22 06:28:45;;;;;;;15.35;6.47;;;25.60;86.40;;;;;;5015479;28;20404;-72
2022/07/22 06:31:10;;;;;;;22.52;7.40;;;25.60;85.90;;;;;;5015580;28;20029;-72
2022/07/22 06:33:37;;;;;;;18.27;6.15;;;25.60;86.70;;;;;;5014489;28;20026;-72
2022/07/22 06:36:03;;;;;;;11.85;5.78;;;25.70;85.80;;;;;;5010996;28;20041;-72
2022/07/22 06:38:30;;;;;;;9.93;5.63;;;25.80;86.00;;;;;;5017053;28;20507;-73
2022/07/22 06:40:56;;;;;;;7.90;5.60;;;25.80;85.00;;;;;;5012390;28;20494;-72
2022/07/22 06:43:22;;;;;;;15.88;5.97;;;25.90;84.00;;;;;;5021353;28;20108;-72
2022/07/22 06:45:48;;;;;;;10.02;6.07;;;26.00;84.50;;;;;;5019715;28;20101;-72
2022/07/22 06:48:14;;;;;;;11.32;5.88;;;26.20;84.50;;;;;;5011307;28;20060;-72
2022/07/22 06:50:39;;;;;;;9.57;6.10;;;26.20;85.10;;;;;;5016119;28;20117;-72
2022/07/22 06:53:05;;;;;;;10.38;6.35;;;26.30;85.30;;;;;;5013473;28;20474;-73
2022/07/22 06:55:32;;;;;;;9.13;6.18;;;26.50;85.10;;;;;;5007683;28;20034;-72
2022/07/22 06:57:57;;;;;;;8.10;6.38;;;26.60;84.20;;;;;;5007962;28;20124;-72
2022/07/22 07:00:23;;;;;;;8.77;6.22;;;26.70;84.60;;;;;;5014096;28;20460;-72
2022/07/22 07:02:49;;;;;;;10.40;5.90;;;26.90;83.20;;;;;;5015073;28;20025;-72
2022/07/22 07:05:15;;;;;;;8.80;5.55;;;27.10;82.60;;;;;;5024163;28;20025;-72
2022/07/22 07:07:40;;;;;;;10.27;5.90;;;27.20;83.70;;;;;;5016409;28;20037;-72
2022/07/22 07:10:06;;;;;;;8.13;5.40;;;27.40;83.00;;;;;;5014702;28;20032;-72
2022/07/22 07:12:32;;;;;;;8.93;6.60;;;27.60;83.00;;;;;;5015496;28;20030;-72
2022/07/22 07:14:58;;;;;;;10.70;6.15;;;27.90;82.90;;;;;;5005658;28;20034;-72
2022/07/22 07:17:24;;;;;;;11.40;6.30;;;28.00;81.50;;;;;;5005853;28;20079;-72
2022/07/22 07:19:50;;;;;;;9.88;6.97;;;28.40;81.40;;;;;;5016843;28;20099;-72
2022/07/22 07:22:15;;;;;;;14.75;6.35;;;28.70;80.30;;;;;;5025561;28;20503;-72
2022/07/22 07:24:42;;;;;;;10.25;7.50;;;28.70;80.40;;;;;;5024973;28;20028;-72
2022/07/22 07:27:07;;;;;;;11.75;6.43;;;28.80;79.70;;;;;;5025379;28;20072;-72
2022/07/22 07:29:33;;;;;;;16.70;6.68;;;29.00;80.10;;;;;;5025198;28;20068;-72
2022/07/22 07:31:59;;;;;;;11.27;6.68;;;29.60;78.90;;;;;;5024798;28;20068;-72
2022/07/22 07:34:24;;;;;;;8.80;6.30;;;30.50;77.80;;;;;;5020931;28;20033;-72
2022/07/22 07:36:50;;;;;;;8.00;6.40;;;31.30;75.90;;;;;;5024714;28;20067;-72
2022/07/22 07:39:16;;;;;;;8.75;6.15;;;32.20;74.90;;;;;;5024786;28;20129;-72
2022/07/22 07:41:42;;;;;;;9.25;6.10;;;32.90;74.20;;;;;;5025199;28;20101;-72
2022/07/22 07:44:07;;;;;;;9.93;6.03;;;33.10;72.50;;;;;;5024367;28;20083;-72
2022/07/22 07:46:33;;;;;;;9.07;5.90;;;33.50;72.00;;;;;;5024974;28;20144;-71
2022/07/22 07:48:59;;;;;;;8.02;6.30;;;33.90;71.60;;;;;;5024275;28;20113;-72
2022/07/22 07:51:24;;;;;;;10.65;5.45;;;34.20;71.60;;;;;;5022723;28;20061;-71
2022/07/22 07:53:50;;;;;;;11.07;6.25;;;34.40;71.80;;;;;;5012346;28;20033;-72
2022/07/22 07:56:16;;;;;;;9.30;6.55;;;34.60;71.00;;;;;;5029106;28;20025;-72
2022/07/22 07:58:42;;;;;;;9.55;6.43;;;34.90;71.70;;;;;;5029152;28;20026;-71
2022/07/22 08:01:07;;;;;;;10.23;6.07;;;34.50;70.40;;;;;;5028271;28;20364;-72
2022/07/22 08:03:33;;;;;;;13.30;7.20;;;34.60;70.30;;;;;;5028436;28;20099;-72
2022/07/22 08:05:59;;;;;;;10.52;6.97;;;34.70;70.10;;;;;;5028210;28;20030;-72
2022/07/22 08:08:25;;;;;;;10.95;6.57;;;34.50;70.90;;;;;;5022557;28;20037;-72
2022/07/22 08:10:51;;;;;;;13.73;6.85;;;34.30;70.00;;;;;;5008558;28;20026;-72
2022/07/22 08:13:17;;;;;;;13.43;6.80;;;34.30;70.90;;;;;;5008343;28;20534;-72
2022/07/22 08:15:43;;;;;;;17.73;7.75;;;33.80;71.90;;;;;;5008814;28;20026;-72
2022/07/22 08:18:09;;;;;;;12.70;7.28;;;32.80;72.60;;;;;;5008318;28;20065;-72
2022/07/22 08:20:35;;;;;;;8.65;6.43;;;32.40;73.90;;;;;;5008543;28;20038;-72
2022/07/22 08:23:00;;;;;;;9.65;6.70;;;32.30;73.90;;;;;;5008757;28;20440;-72
2022/07/22 08:25:26;;;;;;;11.25;6.40;;;31.10;74.20;;;;;;5008406;28;20049;-73
2022/07/22 08:27:52;;;;;;;15.50;7.18;;;30.80;74.80;;;;;;5008968;28;20053;-73
2022/07/22 08:30:19;;;;;;;14.90;6.78;;;30.30;75.70;;;;;;5009285;28;20122;-72
2022/07/22 08:32:46;;;;;;;8.27;6.30;;;30.70;75.90;;;;;;5015736;28;20030;-73
2022/07/22 08:35:11;;;;;;;10.68;6.68;;;31.00;75.70;;;;;;5028199;28;20030;-73
2022/07/22 08:37:38;;;;;;;9.27;6.40;;;31.20;76.10;;;;;;5018998;28;20041;-72
2022/07/22 08:40:06;;;;;;;9.63;6.97;;;31.50;75.60;;;;;;5008443;28;20060;-72
2022/07/22 08:42:33;;;;;;;10.43;7.28;;;31.10;74.40;;;;;;5008903;28;20029;-73
2022/07/22 08:44:58;;;;;;;15.52;8.07;;;30.80;75.50;;;;;;5008231;28;20937;-72
2022/07/22 08:47:25;;;;;;;10.75;7.00;;;31.00;75.20;;;;;;5008290;28;20032;-73
2022/07/22 08:49:50;;;;;;;13.65;7.00;;;30.90;75.20;;;;;;5007618;28;20053;-73
2022/07/22 08:52:16;;;;;;;12.30;7.35;;;31.10;75.00;;;;;;5008215;28;20863;-72
2022/07/22 08:54:42;;;;;;;10.13;6.72;;;31.20;74.70;;;;;;5008289;28;20068;-72
2022/07/22 08:57:08;;;;;;;10.35;7.03;;;31.60;74.90;;;;;;5008403;28;20033;-72
2022/07/22 08:59:52;;;;;;;9.73;7.32;;;31.70;74.40;;;;;;5008406;28;20030;-72
2022/07/22 09:02:18;;;;;;;14.52;7.50;;;31.50;74.40;;;;;;5014193;28;20064;-72
2022/07/22 09:05:00;;;;;;;11.85;7.72;;;31.50;74.30;;;;;;5027463;28;20025;-72
2022/07/22 09:07:31;;;;;;;9.27;6.95;;;31.70;73.80;;;;;;5027037;28;20037;-72
2022/07/22 09:10:00;;;;;;;13.13;6.93;;;31.80;74.00;;;;;;5027797;28;20026;-72
2022/07/22 09:12:31;;;;;;;9.23;6.72;;;32.00;74.40;;;;;;5024171;28;20548;-72
2022/07/22 09:14:58;;;;;;;12.05;6.50;;;32.20;73.40;;;;;;5007805;28;20021;-72
2022/07/22 09:17:36;;;;;;;10.15;6.43;;;32.50;73.40;;;;;;5007535;28;20533;-73
2022/07/22 09:20:24;;;;;;;7.78;6.40;;;32.50;73.10;;;;;;5007932;28;20026;-72
2022/07/22 09:22:50;;;;;;;8.65;6.25;;;32.10;74.10;;;;;;5009705;28;20057;-72
2022/07/22 09:25:19;;;;;;;9.90;5.97;;;32.00;73.40;;;;;;5027225;28;20146;-73
2022/07/22 09:27:46;;;;;;;8.05;6.20;;;32.10;73.80;;;;;;5019223;28;20545;-73
2022/07/22 09:30:15;;;;;;;8.23;6.07;;;32.50;73.30;;;;;;5007387;28;20106;-73
2022/07/22 09:32:42;;;;;;;8.88;5.82;;;32.80;73.40;;;;;;5007497;28;20243;-73
2022/07/22 09:35:10;;;;;;;9.15;6.63;;;33.20;72.60;;;;;;5007750;28;20033;-73
2022/07/22 09:37:56;;;;;;;9.68;6.80;;;33.20;72.30;;;;;;5007908;28;20036;-73
2022/07/22 09:40:25;;;;;;;10.57;7.20;;;33.10;71.50;;;;;;5006933;28;20041;-73
2022/07/22 09:42:54;;;;;;;9.60;5.63;;;33.00;72.00;;;;;;5006930;28;20030;-73
2022/07/22 09:45:22;;;;;;;11.48;6.72;;;32.90;72.50;;;;;;5009396;28;20032;-73
2022/07/22 09:47:49;;;;;;;10.57;7.03;;;32.90;72.50;;;;;;5012116;28;20037;-73
2022/07/22 09:50:22;;;;;;;10.30;6.20;;;33.30;72.90;;;;;;5007241;28;20056;-72
2022/07/22 09:52:50;;;;;;;11.13;6.50;;;33.70;72.70;;;;;;5014806;28;20052;-74
2022/07/22 09:55:18;;;;;;;7.70;6.20;;;33.50;71.40;;;;;;5016763;28;21107;-73
2022/07/22 09:57:44;;;;;;;7.97;5.95;;;33.80;72.30;;;;;;5014996;28;20119;-73
2022/07/22 10:00:12;;;;;;;10.63;5.55;;;33.90;72.50;;;;;;5016200;28;20116;-73
2022/07/22 10:02:52;;;;;;;9.48;6.70;;;34.10;72.30;;;;;;5011622;28;20026;-73
2022/07/22 10:05:26;;;;;;;11.10;5.90;;;33.90;71.90;;;;;;5019976;28;20110;-72
2022/07/22 10:07:53;;;;;;;15.38;5.53;;;34.00;72.20;;;;;;5013925;28;20113;-72
2022/07/22 10:10:22;;;;;;;10.30;6.05;;;34.20;71.50;;;;;;5005911;28;20025;-72
2022/07/22 10:12:49;;;;;;;8.15;5.50;;;34.00;71.00;;;;;;5006692;28;20475;-72
2022/07/22 10:15:16;;;;;;;7.55;5.93;;;34.40;71.80;;;;;;5015572;28;20935;-72
2022/07/22 10:17:44;;;;;;;13.10;5.32;;;34.60;71.00;;;;;;5006502;28;20517;-72
2022/07/22 10:20:11;;;;;;;9.43;5.57;;;34.50;70.80;;;;;;5006195;28;20098;-72
2022/07/22 10:22:42;;;;;;;16.70;6.15;;;34.60;71.40;;;;;;5004991;28;20026;-73
2022/07/22 10:25:10;;;;;;;15.18;5.80;;;34.60;70.80;;;;;;5005966;28;20083;-73
2022/07/22 10:27:53;;;;;;;9.50;5.25;;;34.90;71.00;;;;;;5012091;28;20619;-73
2022/07/22 10:30:25;;;;;;;6.88;5.55;;;34.80;70.00;;;;;;5012083;28;20084;-73
2022/07/22 10:33:12;;;;;;;13.15;5.78;;;34.80;69.30;;;;;;5006317;28;20072;-73
2022/07/22 10:35:43;;;;;;;7.35;4.65;;;34.70;69.30;;;;;;5005722;28;20032;-73
2022/07/22 10:38:13;;;;;;;6.03;4.80;;;34.80;69.30;;;;;;5004902;28;20033;-73
2022/07/22 10:40:50;;;;;;;7.45;5.70;;;35.10;67.80;;;;;;5005069;28;20029;-72
2022/07/22 10:43:18;;;;;;;11.52;5.35;;;35.50;69.50;;;;;;5015956;28;20041;-73
2022/07/22 10:46:02;;;;;;;7.55;4.03;;;35.30;69.30;;;;;;5009060;28;20029;-73
2022/07/22 10:48:37;;;;;;;10.10;4.95;;;35.40;68.40;;;;;;5007535;28;20095;-73
2022/07/22 10:51:13;;;;;;;7.65;5.07;;;35.60;69.40;;;;;;5004923;28;20042;-72
2022/07/22 10:53:57;;;;;;;7.53;5.05;;;35.80;67.60;;;;;;5005303;28;20029;-72
2022/07/22 10:56:31;;;;;;;;;;;35.80;67.80;;;;;;5005815;28;20372;-72
2022/07/22 10:59:14;;;;;;;12.00;4.95;;;36.10;67.50;;;;;;5005999;28;19929;-72
2022/07/22 11:01:42;;;;;;;9.77;4.47;;;36.10;66.70;;;;;;5005078;28;20036;-72
2022/07/22 11:04:09;;;;;;;9.10;3.88;;;36.40;66.70;;;;;;5005144;28;20052;-73
2022/07/22 11:06:35;;;;;;;9.65;4.35;;;36.40;65.10;;;;;;5005973;28;20089;-73
2022/07/22 11:09:05;;;;;;;5.85;4.25;;;36.30;65.70;;;;;;5004888;28;20030;-73
2022/07/22 11:11:42;;;;;;;5.47;4.18;;;36.50;65.10;;;;;;5005034;28;20541;-72
2022/07/22 11:14:19;;;;;;;8.77;4.22;;;36.10;65.20;;;;;;5005430;28;20033;-73
2022/07/22 11:16:46;;;;;;;7.07;4.65;;;36.40;65.40;;;;;;5010956;28;20038;-73
2022/07/22 11:19:12;;;;;;;9.02;4.85;;;36.40;65.20;;;;;;5007435;28;20026;-73
2022/07/22 11:21:39;;;;;;;9.45;4.88;;;36.50;65.30;;;;;;5007345;28;20218;-73
2022/07/22 11:24:07;;;;;;;7.18;4.43;;;36.70;65.30;;;;;;5022499;28;20025;-73
2022/07/22 11:26:46;;;;;;;6.72;4.30;;;36.80;65.00;;;;;;5009706;28;20032;-73
2022/07/22 11:29:35;;;;;;;9.77;4.82;;;36.60;65.20;;;;;;5008795;28;20516;-73
2022/07/22 11:32:04;;;;;;;6.22;4.45;;;36.70;64.50;;;;;;5016594;28;20037;-74
2022/07/22 11:34:29;;;;;;;8.85;4.18;;;36.80;64.80;;;;;;5019761;28;20030;-72
2022/07/22 11:36:56;;;;;;;6.72;4.28;;;36.90;64.60;;;;;;5011973;28;20029;-73
2022/07/22 11:39:32;;;;;;;5.72;4.60;;;37.00;64.50;;;;;;5004967;28;20033;-73
2022/07/22 11:42:02;;;;;;;5.68;4.40;;;37.20;64.30;;;;;;5005191;28;20061;-74
2022/07/22 11:44:33;;;;;;;6.72;4.38;;;37.20;63.90;;;;;;5008225;28;20978;-73
2022/07/22 11:46:59;;;;;;;34.08;7.25;;;37.40;63.90;;;;;;5023237;28;20436;-73
2022/07/22 11:49:32;;;;;;;7.32;4.20;;;37.50;64.00;;;;;;5023676;28;20060;-74
2022/07/22 11:51:59;;;;;;;8.30;4.05;;;37.30;64.40;;;;;;5025646;28;20544;-74
2022/07/22 11:54:24;;;;;;;9.57;4.00;;;37.30;64.40;;;;;;5025546;28;20075;-74
2022/07/22 11:56:50;;;;;;;6.65;4.70;;;37.20;63.90;;;;;;5025188;28;20057;-74
2022/07/22 11:59:20;;;;;;;8.68;4.63;;;37.30;63.90;;;;;;5024701;28;20420;-74
2022/07/22 12:01:47;;;;;;;9.38;5.15;;;37.30;63.30;;;;;;5005706;28;20902;-73
2022/07/22 12:04:22;;;;;;;8.00;4.60;;;37.20;63.70;;;;;;5005693;28;20104;-74
2022/07/22 12:06:49;;;;;;;6.82;4.55;;;37.40;64.00;;;;;;5005768;28;20181;-74
2022/07/22 12:09:21;;;;;;;6.68;4.32;;;37.70;64.30;;;;;;5005137;28;20022;-74
2022/07/22 12:11:50;;;;;;;10.32;4.57;;;37.40;63.50;;;;;;5005225;28;20026;-74
2022/07/22 12:14:17;;;;;;;8.05;4.20;;;37.40;63.70;;;;;;5005370;28;20022;-74
2022/07/22 12:16:52;;;;;;;6.53;4.32;;;37.70;64.40;;;;;;5005486;28;20029;-74
2022/07/22 12:19:18;;;;;;;7.95;4.65;;;37.80;63.60;;;;;;5005440;28;20030;-73
2022/07/22 12:21:51;;;;;;;6.07;4.57;;;37.80;63.50;;;;;;5004549;28;20091;-74
2022/07/22 12:24:35;;;;;;;7.53;4.43;;;38.00;62.90;;;;;;5011292;28;20385;-74
2022/07/22 12:27:05;;;;;;;8.63;4.82;;;37.90;63.30;;;;;;5006695;28;20034;-74
2022/07/22 12:29:45;;;;;;;8.18;4.28;;;37.90;63.30;;;;;;5003766;28;20034;-74
2022/07/22 12:32:22;;;;;;;8.55;4.95;;;38.20;64.20;;;;;;5003526;28;20052;-74
2022/07/22 12:34:55;;;;;;;10.07;4.10;;;38.10;63.50;;;;;;5003637;28;20091;-74
2022/07/22 12:37:21;;;;;;;7.85;4.38;;;38.20;63.70;;;;;;5004620;28;20037;-74
2022/07/22 12:39:54;;;;;;;7.50;4.63;;;38.10;63.60;;;;;;5005143;28;20025;-74
2022/07/22 12:42:20;;;;;;;14.55;5.15;;;37.90;63.30;;;;;;5007774;28;20061;-74
2022/07/22 12:45:06;;;;;;;10.07;4.47;;;38.00;63.10;;;;;;5008797;28;20030;-74